Time;durP1;ratioP1;P1;durP2;ratioP2;P2;SDS_P1;SDS_P2;PMS_P1;PMS_P2;Temp;Humidity;BMP_temperature;BMP_pressure;BME280_temperature;BME280_humidity;BME280_pressure;Samples;Min_cycle;Max_cycle;Signal;HPM_P1;HPM_P2
2021/11/04 00:02:23;;;;;;;;;;;;;;;5.68;91.42;94956.75;5076923;28;20002;-75
2021/11/04 00:04:49;;;;;;;;;;;;;;;5.66;91.49;94965.78;5077926;28;20330;-75
2021/11/04 00:07:15;;;;;;;;;;;;;;;5.64;91.41;94965.22;5076927;28;19953;-76
2021/11/04 00:09:41;;;;;;;;;;;;;;;5.61;91.56;94971.66;5076888;28;19962;-76
2021/11/04 00:12:07;;;;;;;;;;;;;;;5.59;91.56;94971.09;5076967;28;19955;-76
2021/11/04 00:14:33;;;;;;;;;;;;;;;5.59;91.85;94968.50;5076950;28;19954;-76
2021/11/04 00:16:59;;;;;;;;;;;;;;;5.61;92.09;94970.88;5076417;28;20417;-74
2021/11/04 00:19:26;;;;;;;;;;;;;;;5.61;91.97;94961.25;5076417;28;20043;-73
2021/11/04 00:21:51;;;;;;;;;;;;;;;5.60;92.18;94956.28;5076347;28;19970;-74
2021/11/04 00:24:17;;;;;;;;;;;;;;;5.60;92.04;94938.84;5076676;28;20360;-74
2021/11/04 00:26:43;;;;;;;;;;;;;;;5.60;91.96;94927.69;5076629;28;19950;-74
2021/11/04 00:29:09;;;;;;;;;;;;;;;5.59;92.08;94913.09;5076372;28;19960;-74
2021/11/04 00:31:35;;;;;;;;;;;;;;;5.58;92.11;94912.28;5076212;28;19998;-74
2021/11/04 00:34:01;;;;;;;;;;;;;;;5.56;92.25;94903.91;5076484;28;20034;-73
2021/11/04 00:36:27;;;;;;;;;;;;;;;5.54;92.24;94918.94;5075960;28;19987;-74
2021/11/04 00:38:53;;;;;;;;;;;;;;;5.55;92.14;94919.75;5076077;28;20398;-74
2021/11/04 00:41:19;;;;;;;;;;;;;;;5.54;92.16;94933.75;5075767;28;20043;-74
2021/11/04 00:43:45;;;;;;;;;;;;;;;5.54;92.19;94936.38;5076000;28;20307;-74
2021/11/04 00:46:11;;;;;;;;;;;;;;;5.52;92.17;94946.97;5076694;28;20401;-74
2021/11/04 00:48:37;;;;;;;;;;;;;;;5.53;92.13;94960.78;5074947;28;19956;-73
2021/11/04 00:51:06;;;;;;;;;;;;;;;5.53;92.01;94966.78;5075928;28;19953;-74
2021/11/04 00:53:32;;;;;;;;;;;;;;;5.53;92.04;94966.78;5075846;28;19983;-74
2021/11/04 00:56:00;;;;;;;;;;;;;;;5.52;92.43;94972.97;5075842;28;19998;-74
2021/11/04 00:58:26;;;;;;;;;;;;;;;5.53;92.47;94992.00;5075677;28;19969;-74
2021/11/04 01:00:52;;;;;;;;;;;;;;;5.54;92.79;94986.56;5075773;28;19958;-74
2021/11/04 01:03:18;;;;;;;;;;;;;;;5.54;92.79;94988.38;5075670;28;20332;-74
2021/11/04 01:05:44;;;;;;;;;;;;;;;5.54;92.66;94990.97;5063931;28;19969;-74
2021/11/04 01:08:10;;;;;;;;;;;;;;;5.54;92.47;94975.38;5075611;28;19948;-74
2021/11/04 01:10:36;;;;;;;;;;;;;;;5.54;92.62;94980.56;5075609;28;20044;-74
2021/11/04 01:13:02;;;;;;;;;;;;;;;5.53;92.50;94973.78;5075447;28;19963;-74
2021/11/04 01:15:28;;;;;;;;;;;;;;;5.55;92.90;94969.94;5076049;28;19957;-74
2021/11/04 01:17:54;;;;;;;;;;;;;;;5.55;93.12;94963.97;5075697;28;19946;-74
2021/11/04 01:20:20;;;;;;;;;;;;;;;5.56;93.02;94958.53;5075476;28;19956;-74
2021/11/04 01:22:46;;;;;;;;;;;;;;;5.56;92.95;94961.13;5075558;28;20342;-74
2021/11/04 01:25:12;;;;;;;;;;;;;;;5.57;93.16;94961.94;5075052;28;19957;-73
2021/11/04 01:27:38;;;;;;;;;;;;;;;5.57;93.12;94960.13;5075457;28;20399;-74
2021/11/04 01:30:05;;;;;;;;;;;;;;;5.58;93.03;94956.50;5075089;28;20040;-73
2021/11/04 01:32:31;;;;;;;;;;;;;;;5.58;93.13;94953.09;5075028;28;19963;-73
2021/11/04 01:34:57;;;;;;;;;;;;;;;5.59;93.20;94947.69;5073785;28;19949;-74
2021/11/04 01:37:23;;;;;;;;;;;;;;;5.58;93.35;94947.91;5075075;28;20410;-74
2021/11/04 01:39:49;;;;;;;;;;;;;;;5.58;93.19;94940.88;5073825;28;20006;-74
2021/11/04 01:42:17;;;;;;;;;;;;;;;5.60;93.00;94940.69;5075046;28;20471;-74
2021/11/04 01:44:43;;;;;;;;;;;;;;;5.59;93.13;94934.69;5075101;28;20338;-73
2021/11/04 01:47:09;;;;;;;;;;;;;;;5.59;93.01;94941.72;5074836;28;20031;-73
2021/11/04 01:49:38;;;;;;;;;;;;;;;5.57;91.78;94941.91;5074759;28;19956;-73
2021/11/04 01:52:04;;;;;;;;;;;;;;;5.56;92.61;94936.94;5075294;28;19959;-73
2021/11/04 01:54:30;;;;;;;;;;;;;;;5.53;93.10;94938.19;5075400;28;19995;-73
2021/11/04 01:56:56;;;;;;;;;;;;;;;5.49;92.17;94932.63;5074624;28;19977;-73
2021/11/04 01:59:22;;;;;;;;;;;;;;;5.46;91.80;94925.28;5074800;28;19956;-73
2021/11/04 02:01:53;;;;;;;;;;;;;;;5.42;92.34;94918.94;5074581;28;19981;-73
2021/11/04 02:04:22;;;;;;;;;;;;;;;5.41;91.72;94926.97;5074374;28;19966;-73
2021/11/04 02:07:07;;;;;;;;;;;;;;;5.38;91.27;94938.59;5074708;28;19956;-74
2021/11/04 02:09:43;;;;;;;;;;;;;;;5.35;89.65;94951.22;5074508;28;20423;-73
2021/11/04 02:12:16;;;;;;;;;;;;;;;5.31;89.74;94947.50;5074631;28;20414;-74
2021/11/04 02:14:44;;;;;;;;;;;;;;;5.27;89.79;94960.13;5074538;28;19955;-74
2021/11/04 02:17:10;;;;;;;;;;;;;;;5.27;90.09;94962.72;5074493;28;19975;-73
2021/11/04 02:19:47;;;;;;;;;;;;;;;5.24;89.38;94958.78;5074381;28;19967;-73
2021/11/04 02:22:28;;;;;;;;;;;;;;;5.21;89.39;94961.81;5074465;28;19952;-74
2021/11/04 02:25:11;;;;;;;;;;;;;;;5.18;87.92;94982.25;5073956;28;20401;-74
2021/11/04 02:27:38;;;;;;;;;;;;;;;5.16;88.33;94989.47;5074306;28;20319;-74
2021/11/04 02:30:04;;;;;;;;;;;;;;;5.14;87.83;94987.09;5074056;28;19967;-74
2021/11/04 02:32:31;;;;;;;;;;;;;;;5.13;88.67;94989.91;5072795;28;20037;-74
2021/11/04 02:34:58;;;;;;;;;;;;;;;5.11;87.67;94987.53;5074088;28;20408;-74
2021/11/04 02:37:24;;;;;;;;;;;;;;;5.08;86.94;94998.34;5073678;28;19962;-74
2021/11/04 02:39:50;;;;;;;;;;;;;;;5.06;86.93;94993.41;5073862;28;19963;-74
2021/11/04 02:42:16;;;;;;;;;;;;;;;5.06;87.30;94992.59;5074041;28;19952;-74
2021/11/04 02:44:42;;;;;;;;;;;;;;;5.07;87.83;94994.19;5073793;28;19956;-74
2021/11/04 02:47:08;;;;;;;;;;;;;;;5.05;86.91;94996.19;5073903;28;19948;-74
2021/11/04 02:49:35;;;;;;;;;;;;;;;5.03;86.35;94996.41;5073799;28;19954;-74
2021/11/04 02:52:02;;;;;;;;;;;;;;;5.01;86.72;94989.84;5073621;28;19963;-74
2021/11/04 02:54:28;;;;;;;;;;;;;;;5.01;87.02;95001.03;5074173;28;19986;-74
2021/11/04 02:56:55;;;;;;;;;;;;;;;5.02;87.55;95005.22;5073768;28;20493;-74
2021/11/04 02:59:23;;;;;;;;;;;;;;;5.02;87.38;95005.22;5073573;28;20363;-74
2021/11/04 03:01:51;;;;;;;;;;;;;;;5.02;86.85;95005.22;5073824;28;19962;-74
2021/11/04 03:04:17;;;;;;;;;;;;;;;5.03;87.83;95013.81;5073223;28;20313;-74
2021/11/04 03:06:43;;;;;;;;;;;;;;;5.06;88.05;95018.56;5073409;28;20007;-74
2021/11/04 03:09:09;;;;;;;;;;;;;;;5.07;87.78;95017.56;5073551;28;20014;-74
2021/11/04 03:11:35;;;;;;;;;;;;;;;5.09;87.87;95018.13;5073704;28;20401;-74
2021/11/04 03:14:02;;;;;;;;;;;;;;;5.09;86.89;95015.53;5073456;28;19949;-74
2021/11/04 03:16:30;;;;;;;;;;;;;;;5.08;87.67;95016.53;5073509;28;19972;-74
2021/11/04 03:18:57;;;;;;;;;;;;;;;5.09;87.61;95013.72;5073335;28;19947;-74
2021/11/04 03:21:23;;;;;;;;;;;;;;;5.11;87.42;95013.53;5073675;28;19956;-74
2021/11/04 03:23:49;;;;;;;;;;;;;;;5.11;87.28;95010.13;5073305;28;19983;-74
2021/11/04 03:26:16;;;;;;;;;;;;;;;5.08;86.68;95006.97;5073830;28;19953;-74
2021/11/04 03:28:42;;;;;;;;;;;;;;;5.05;86.73;95007.38;5073330;28;19947;-74
2021/11/04 03:31:09;;;;;;;;;;;;;;;5.03;87.26;95001.59;5073328;28;19980;-74
2021/11/04 03:33:35;;;;;;;;;;;;;;;5.04;87.71;94999.81;5065020;28;19956;-74
2021/11/04 03:36:02;;;;;;;;;;;;;;;5.05;87.63;94999.59;5073093;28;19960;-74
2021/11/04 03:38:28;;;;;;;;;;;;;;;5.05;87.98;94999.59;5073571;28;19974;-74
2021/11/04 03:40:58;;;;;;;;;;;;;;;5.04;88.03;94998.03;5073173;28;19987;-74
2021/11/04 03:43:25;;;;;;;;;;;;;;;5.01;87.98;94995.84;5073352;28;19947;-74
2021/11/04 03:45:51;;;;;;;;;;;;;;;4.99;87.95;94984.09;5073153;28;20309;-74
2021/11/04 03:48:17;;;;;;;;;;;;;;;4.99;87.77;94997.06;5073019;28;20424;-74
2021/11/04 03:50:44;;;;;;;;;;;;;;;4.95;87.83;94998.53;5073162;28;20315;-74
2021/11/04 03:53:10;;;;;;;;;;;;;;;4.91;87.39;94992.97;5071999;28;19979;-74
2021/11/04 03:55:36;;;;;;;;;;;;;;;4.91;87.57;94994.78;5073140;28;19953;-74
2021/11/04 03:58:02;;;;;;;;;;;;;;;4.90;87.39;94996.59;5073162;28;20457;-75
2021/11/04 04:00:28;;;;;;;;;;;;;;;4.88;87.25;94996.78;5073036;28;19952;-74
2021/11/04 04:02:54;;;;;;;;;;;;;;;4.87;87.10;94990.03;5072837;28;19948;-74
2021/11/04 04:05:31;;;;;;;;;;;;;;;4.85;86.57;94994.66;5073067;28;19963;-74
2021/11/04 04:07:57;;;;;;;;;;;;;;;4.80;86.74;94997.06;5073236;28;20403;-74
2021/11/04 04:10:23;;;;;;;;;;;;;;;4.76;86.80;95003.72;5072935;28;19962;-74
2021/11/04 04:12:49;;;;;;;;;;;;;;;4.74;86.56;95004.94;5073102;28;19963;-74
2021/11/04 04:15:15;;;;;;;;;;;;;;;4.71;86.68;95020.97;5071880;28;19957;-73
2021/11/04 04:17:41;;;;;;;;;;;;;;;4.71;86.27;95021.75;5076362;28;19979;-74
2021/11/04 04:20:07;;;;;;;;;;;;;;;4.67;86.52;95024.00;5076593;28;20018;-73
2021/11/04 04:22:33;;;;;;;;;;;;;;;4.66;86.75;95035.41;5076290;28;19955;-74
2021/11/04 04:24:59;;;;;;;;;;;;;;;4.67;87.11;95023.19;5076354;28;19964;-74
2021/11/04 04:27:25;;;;;;;;;;;;;;;4.67;87.14;95025.78;5076487;28;19985;-73
2021/11/04 04:29:51;;;;;;;;;;;;;;;4.68;86.87;95035.97;5075179;28;20412;-75
2021/11/04 04:32:17;;;;;;;;;;;;;;;4.68;86.36;95041.16;5076361;28;19997;-74
2021/11/04 04:34:43;;;;;;;;;;;;;;;4.67;86.88;95036.19;5076188;28;20396;-74
2021/11/04 04:37:09;;;;;;;;;;;;;;;4.64;86.71;95036.59;5076156;28;19971;-74
2021/11/04 04:39:37;;;;;;;;;;;;;;;4.63;86.68;95033.22;5076224;28;19954;-74
2021/11/04 04:42:03;;;;;;;;;;;;;;;4.63;86.93;95041.00;5076216;28;20299;-74
2021/11/04 04:44:29;;;;;;;;;;;;;;;4.64;87.11;95047.81;5075916;28;19956;-74
2021/11/04 04:46:55;;;;;;;;;;;;;;;4.64;87.31;95046.97;5076114;28;19963;-74
2021/11/04 04:49:21;;;;;;;;;;;;;;;4.61;86.56;95044.84;5074755;28;19962;-74
2021/11/04 04:51:48;;;;;;;;;;;;;;;4.55;86.82;95049.06;5076073;28;19956;-74
2021/11/04 04:54:13;;;;;;;;;;;;;;;4.50;87.19;95048.94;5075783;28;20381;-74
2021/11/04 04:56:39;;;;;;;;;;;;;;;4.48;87.82;95054.31;5075814;28;19998;-75
2021/11/04 04:59:05;;;;;;;;;;;;;;;4.48;88.34;95056.13;5075764;28;20424;-75
2021/11/04 05:01:31;;;;;;;;;;;;;;;4.45;87.76;95054.75;5075770;28;20004;-74
2021/11/04 05:03:57;;;;;;;;;;;;;;;4.43;87.75;95058.56;5075637;28;20458;-74
2021/11/04 05:06:23;;;;;;;;;;;;;;;4.42;88.77;95060.38;5075825;28;20042;-74
2021/11/04 05:08:49;;;;;;;;;;;;;;;4.45;88.72;95064.34;5075584;28;20320;-74
2021/11/04 05:11:15;;;;;;;;;;;;;;;4.47;88.99;95064.91;5075769;28;20008;-74
2021/11/04 05:13:41;;;;;;;;;;;;;;;4.49;88.79;95070.69;5075799;28;20322;-74
2021/11/04 05:16:07;;;;;;;;;;;;;;;4.52;88.68;95072.88;5075367;28;19951;-74
2021/11/04 05:18:33;;;;;;;;;;;;;;;4.54;88.53;95064.88;5075488;28;20019;-74
2021/11/04 05:20:58;;;;;;;;;;;;;;;4.50;87.53;95064.50;5075869;28;19960;-74
2021/11/04 05:23:24;;;;;;;;;;;;;;;4.46;87.93;95079.69;5074943;28;19962;-74
2021/11/04 05:25:51;;;;;;;;;;;;;;;4.43;88.54;95081.91;5074295;28;20016;-74
2021/11/04 05:28:16;;;;;;;;;;;;;;;4.44;88.84;95080.94;5074735;28;19960;-74
2021/11/04 05:30:43;;;;;;;;;;;;;;;4.47;89.04;95090.88;5075072;28;19954;-74
2021/11/04 05:33:09;;;;;;;;;;;;;;;4.50;89.04;95079.28;5075344;28;20300;-74
2021/11/04 05:35:35;;;;;;;;;;;;;;;4.50;88.69;95095.66;5075318;28;19967;-75
2021/11/04 05:38:01;;;;;;;;;;;;;;;4.50;88.26;95089.69;5073901;28;20045;-74
2021/11/04 05:40:27;;;;;;;;;;;;;;;4.51;88.82;95099.81;5075064;28;19962;-74
2021/11/04 05:42:53;;;;;;;;;;;;;;;4.53;88.61;95091.84;5075020;28;19956;-74
2021/11/04 05:45:19;;;;;;;;;;;;;;;4.53;88.62;95097.81;5074262;28;19956;-74
2021/11/04 05:47:45;;;;;;;;;;;;;;;4.55;89.08;95087.22;5075240;28;19959;-74
2021/11/04 05:50:12;;;;;;;;;;;;;;;4.54;88.57;95091.63;5074719;28;20400;-77
2021/11/04 05:52:38;;;;;;;;;;;;;;;4.48;87.98;95103.66;5074672;28;19958;-76
2021/11/04 05:55:04;;;;;;;;;;;;;;;4.47;89.13;95112.44;5074704;28;20030;-77
2021/11/04 05:57:30;;;;;;;;;;;;;;;4.46;88.97;95113.44;5074638;28;19976;-77
2021/11/04 05:59:56;;;;;;;;;;;;;;;4.45;88.45;95111.06;5074471;28;19962;-77
2021/11/04 06:02:22;;;;;;;;;;;;;;;4.41;89.04;95108.09;5074846;28;20004;-76
2021/11/04 06:04:48;;;;;;;;;;;;;;;4.42;89.06;95114.09;5074506;28;19969;-77
2021/11/04 06:07:15;;;;;;;;;;;;;;;4.45;89.25;95121.44;5074643;28;19955;-76
2021/11/04 06:09:41;;;;;;;;;;;;;;;4.47;89.38;95129.81;5074472;28;19951;-76
2021/11/04 06:12:08;;;;;;;;;;;;;;;4.46;89.08;95130.81;5074507;28;19979;-77
2021/11/04 06:14:34;;;;;;;;;;;;;;;4.46;89.12;95136.81;5074234;28;19955;-77
2021/11/04 06:17:00;;;;;;;;;;;;;;;4.48;89.95;95142.59;5074195;28;19964;-77
2021/11/04 06:19:26;;;;;;;;;;;;;;;4.50;89.85;95142.38;5074507;28;19956;-76
2021/11/04 06:21:52;;;;;;;;;;;;;;;4.50;89.35;95144.19;5072956;28;19956;-77
2021/11/04 06:24:18;;;;;;;;;;;;;;;4.50;89.81;95144.19;5073310;28;20046;-76
2021/11/04 06:26:44;;;;;;;;;;;;;;;4.50;89.95;95147.56;5074226;28;19976;-76
2021/11/04 06:29:10;;;;;;;;;;;;;;;4.50;89.39;95147.56;5074099;28;20339;-77
2021/11/04 06:31:36;;;;;;;;;;;;;;;4.48;88.77;95152.19;5074073;28;20410;-76
2021/11/04 06:34:02;;;;;;;;;;;;;;;4.47;89.38;95159.19;5074026;28;19955;-77
2021/11/04 06:36:28;;;;;;;;;;;;;;;4.50;89.54;95167.56;5073828;28;20008;-77
2021/11/04 06:38:53;;;;;;;;;;;;;;;4.51;89.27;95174.31;5073257;28;20004;-76
2021/11/04 06:41:19;;;;;;;;;;;;;;;4.53;89.50;95162.72;5073895;28;20288;-76
2021/11/04 06:43:45;;;;;;;;;;;;;;;4.52;88.42;95161.13;5073756;28;19953;-77
2021/11/04 06:46:15;;;;;;;;;;;;;;;4.50;88.31;95165.75;5074028;28;19953;-77
2021/11/04 06:48:45;;;;;;;;;;;;;;;4.48;88.64;95173.72;5074020;28;19958;-77
2021/11/04 06:51:12;;;;;;;;;;;;;;;4.47;88.94;95174.75;5073662;28;19954;-77
2021/11/04 06:53:45;;;;;;;;;;;;;;;4.50;88.85;95186.50;5073948;28;19987;-77
2021/11/04 06:56:11;;;;;;;;;;;;;;;4.53;89.03;95186.06;5073977;28;20326;-77
2021/11/04 06:58:38;;;;;;;;;;;;;;;4.55;88.56;95186.66;5073765;28;19973;-76
2021/11/04 07:01:13;;;;;;;;;;;;;;;4.58;89.52;95196.63;5073638;28;19961;-76
2021/11/04 07:03:48;;;;;;;;;;;;;;;4.60;89.20;95202.41;5073856;28;20424;-76
2021/11/04 07:06:19;;;;;;;;;;;;;;;4.63;88.84;95208.97;5073821;28;19955;-77
2021/11/04 07:08:52;;;;;;;;;;;;;;;4.64;88.04;95206.19;5073626;28;20421;-77
2021/11/04 07:11:19;;;;;;;;;;;;;;;4.65;88.21;95214.75;5073525;28;19946;-76
2021/11/04 07:13:46;;;;;;;;;;;;;;;4.64;88.33;95221.75;5073549;28;19947;-76
2021/11/04 07:16:13;;;;;;;;;;;;;;;4.65;88.75;95225.94;5073426;28;20420;-77
2021/11/04 07:18:39;;;;;;;;;;;;;;;4.66;88.31;95226.72;5073493;28;19964;-77
2021/11/04 07:21:10;;;;;;;;;;;;;;;4.67;88.25;95236.91;5073598;28;19994;-77
2021/11/04 07:23:38;;;;;;;;;;;;;;;4.70;88.52;95240.09;5073311;28;19952;-76
2021/11/04 07:26:05;;;;;;;;;;;;;;;4.72;88.48;95238.88;5073709;28;20435;-77
2021/11/04 07:28:32;;;;;;;;;;;;;;;4.73;87.51;95242.28;5073453;28;20406;-77
2021/11/04 07:30:58;;;;;;;;;;;;;;;4.72;87.97;95243.28;5073708;28;19952;-76
2021/11/04 07:33:27;;;;;;;;;;;;;;;4.73;87.87;95244.88;5073345;28;20381;-77
2021/11/04 07:35:53;;;;;;;;;;;;;;;4.74;87.21;95251.66;5073781;28;19975;-76
2021/11/04 07:38:22;;;;;;;;;;;;;;;4.71;87.26;95258.06;5073293;28;20379;-77
2021/11/04 07:40:48;;;;;;;;;;;;;;;4.72;87.81;95259.66;5063806;28;19954;-76
2021/11/04 07:43:16;;;;;;;;;;;;;;;4.73;87.83;95265.66;5073180;28;19973;-76
2021/11/04 07:45:42;;;;;;;;;;;;;;;4.76;88.75;95263.41;5072051;28;19949;-76
2021/11/04 07:48:08;;;;;;;;;;;;;;;4.78;89.30;95273.59;5071989;28;19960;-75
2021/11/04 07:50:35;;;;;;;;;;;;;;;4.81;89.23;95281.00;5075406;28;19952;-75
2021/11/04 07:53:01;;;;;;;;;;;;;;;4.84;89.26;95285.75;5077090;28;19965;-75
2021/11/04 07:55:27;;;;;;;;;;;;;;;4.86;89.73;95278.53;5077008;28;19953;-75
2021/11/04 07:57:53;;;;;;;;;;;;;;;4.90;89.85;95286.72;5076890;28;20029;-75
2021/11/04 08:00:20;;;;;;;;;;;;;;;4.86;88.87;95283.75;5076823;28;19949;-76
2021/11/04 08:02:46;;;;;;;;;;;;;;;4.83;89.64;95292.75;5077062;28;19957;-75
2021/11/04 08:05:13;;;;;;;;;;;;;;;4.85;89.95;95295.94;5076986;28;19999;-75
2021/11/04 08:07:40;;;;;;;;;;;;;;;4.85;90.04;95302.91;5076895;28;20034;-75
2021/11/04 08:10:08;;;;;;;;;;;;;;;4.82;88.11;95298.94;5076640;28;19953;-75
2021/11/04 08:12:34;;;;;;;;;;;;;;;4.80;89.40;95310.53;5076759;28;19948;-75
2021/11/04 08:15:00;;;;;;;;;;;;;;;4.78;89.82;95309.97;5076479;28;19954;-75
2021/11/04 08:17:26;;;;;;;;;;;;;;;4.79;90.50;95306.38;5076757;28;20427;-75
2021/11/04 08:19:52;;;;;;;;;;;;;;;4.80;90.82;95311.34;5076586;28;19953;-75
2021/11/04 08:22:19;;;;;;;;;;;;;;;4.84;90.54;95314.31;5077080;28;20036;-75
2021/11/04 08:24:47;;;;;;;;;;;;;;;4.85;90.55;95315.91;5076353;28;19961;-75
2021/11/04 08:27:13;;;;;;;;;;;;;;;4.85;91.12;95321.09;5076610;28;20332;-75
2021/11/04 08:29:39;;;;;;;;;;;;;;;4.87;90.84;95324.28;5076344;28;19953;-75
2021/11/04 08:32:05;;;;;;;;;;;;;;;4.88;90.00;95331.09;5076327;28;19961;-75
2021/11/04 08:34:31;;;;;;;;;;;;;;;4.85;89.79;95332.28;5075393;28;20322;-75
2021/11/04 08:36:57;;;;;;;;;;;;;;;4.88;90.18;95331.88;5076264;28;19955;-75
2021/11/04 08:39:23;;;;;;;;;;;;;;;4.90;90.51;95338.66;5076101;28;19977;-75
2021/11/04 08:41:49;;;;;;;;;;;;;;;4.93;90.78;95338.25;5076111;28;19956;-75
2021/11/04 08:44:14;;;;;;;;;;;;;;;4.95;90.19;95339.63;5076080;28;20398;-75
2021/11/04 08:46:40;;;;;;;;;;;;;;;4.95;90.54;95344.03;5075981;28;19967;-75
2021/11/04 08:49:06;;;;;;;;;;;;;;;4.96;90.97;95346.41;5075946;28;20056;-75
2021/11/04 08:51:32;;;;;;;;;;;;;;;4.97;91.19;95347.22;5076093;28;19957;-75
2021/11/04 08:53:59;;;;;;;;;;;;;;;4.99;90.68;95350.38;5075665;28;20433;-75
2021/11/04 08:56:25;;;;;;;;;;;;;;;5.00;91.10;95355.38;5075993;28;19978;-75
2021/11/04 08:58:51;;;;;;;;;;;;;;;5.05;92.19;95352.16;5075808;28;19977;-75
2021/11/04 09:01:18;;;;;;;;;;;;;;;5.06;90.90;95357.16;5074936;28;19972;-75
2021/11/04 09:03:44;;;;;;;;;;;;;;;5.09;91.01;95361.91;5076163;28;19971;-75
2021/11/04 09:06:10;;;;;;;;;;;;;;;5.13;91.51;95362.31;5075765;28;19959;-75
2021/11/04 09:08:36;;;;;;;;;;;;;;;5.17;90.93;95370.47;5075783;28;19954;-75
2021/11/04 09:11:02;;;;;;;;;;;;;;;5.21;90.92;95379.44;5075627;28;19955;-75
2021/11/04 09:13:28;;;;;;;;;;;;;;;5.26;90.70;95377.78;5075473;28;19956;-75
2021/11/04 09:15:54;;;;;;;;;;;;;;;5.27;90.02;95381.19;5074659;28;20029;-75
2021/11/04 09:18:20;;;;;;;;;;;;;;;5.30;89.88;95385.97;5074170;28;19968;-75
2021/11/04 09:20:46;;;;;;;;;;;;;;;5.33;90.35;95382.16;5075535;28;19956;-75
2021/11/04 09:23:12;;;;;;;;;;;;;;;5.35;90.02;95396.53;5075589;28;19954;-72
2021/11/04 09:25:38;;;;;;;;;;;;;;;5.38;90.06;95395.34;5075596;28;20422;-75
2021/11/04 09:28:04;;;;;;;;;;;;;;;5.43;91.60;95398.09;5075341;28;19965;-75
2021/11/04 09:30:30;;;;;;;;;;;;;;;5.46;89.47;95402.88;5075144;28;20040;-76
2021/11/04 09:32:56;;;;;;;;;;;;;;;5.50;90.02;95417.03;5075075;28;19963;-75
2021/11/04 09:35:23;;;;;;;;;;;;;;;5.53;90.51;95416.63;5075099;28;20014;-73
2021/11/04 09:37:49;;;;;;;;;;;;;;;5.56;90.00;95418.00;5075066;28;20342;-72
2021/11/04 09:40:16;;;;;;;;;;;;;;;5.56;89.68;95421.38;5075007;28;20038;-72
2021/11/04 09:42:44;;;;;;;;;;;;;;;5.59;89.19;95430.59;5075116;28;19947;-73
2021/11/04 09:45:10;;;;;;;;;;;;;;;5.63;90.37;95440.34;5074753;28;19946;-72
2021/11/04 09:47:36;;;;;;;;;;;;;;;5.64;88.70;95446.34;5075013;28;20315;-72
2021/11/04 09:50:06;;;;;;;;;;;;;;;5.65;88.27;95453.94;5074770;28;19960;-73
2021/11/04 09:52:34;;;;;;;;;;;;;;;5.66;89.03;95457.34;5075264;28;19959;-73
2021/11/04 09:55:00;;;;;;;;;;;;;;;5.66;87.62;95463.31;5074369;28;19975;-73
2021/11/04 09:57:27;;;;;;;;;;;;;;;5.63;86.80;95461.16;5074989;28;19958;-73
2021/11/04 09:59:53;;;;;;;;;;;;;;;5.60;88.05;95463.38;5075376;28;19962;-73
2021/11/04 10:02:20;;;;;;;;;;;;;;;5.60;89.83;95471.97;5074679;28;19958;-73
2021/11/04 10:04:47;;;;;;;;;;;;;;;5.60;87.79;95473.78;5074693;28;19966;-72
2021/11/04 10:07:14;;;;;;;;;;;;;;;5.61;87.70;95470.97;5074528;28;19952;-73
2021/11/04 10:09:41;;;;;;;;;;;;;;;5.65;87.75;95479.16;5073256;28;19954;-73
2021/11/04 10:12:14;;;;;;;;;;;;;;;5.68;87.48;95479.50;5074279;28;19957;-73
2021/11/04 10:14:40;;;;;;;;;;;;;;;5.67;87.85;95483.13;5073211;28;20403;-73
2021/11/04 10:17:26;;;;;;;;;;;;;;;5.65;86.64;95481.75;5061702;28;20325;-73
2021/11/04 10:19:53;;;;;;;;;;;;;;;5.62;87.15;95493.34;5074077;28;19958;-73
2021/11/04 10:22:26;;;;;;;;;;;;;;;5.57;86.60;95488.00;5074343;28;19958;-73
2021/11/04 10:24:52;;;;;;;;;;;;;;;5.56;87.10;95494.19;5073846;28;20323;-73
2021/11/04 10:27:29;;;;;;;;;;;;;;;5.54;85.94;95505.81;5061534;28;19949;-72
2021/11/04 10:29:55;;;;;;;;;;;;;;;5.54;86.52;95506.59;5074039;28;20363;-75
2021/11/04 10:32:50;;;;;;;;;;;;;;;5.55;87.50;95508.22;5073874;28;19961;-75
2021/11/04 10:35:16;;;;;;;;;;;;;;;5.52;87.33;95518.22;5069244;28;19961;-76
2021/11/04 10:37:44;;;;;;;;;;;;;;;5.50;86.38;95515.84;5074197;28;19957;-73
2021/11/04 10:40:16;;;;;;;;;;;;;;;5.52;87.28;95523.44;5074320;28;19959;-73
2021/11/04 10:42:55;;;;;;;;;;;;;;;5.51;86.65;95517.44;5074115;28;19959;-73
2021/11/04 10:45:23;;;;;;;;;;;;;;;5.52;86.97;95523.44;5073819;28;19950;-73
2021/11/04 10:48:08;;;;;;;;;;;;;;;5.47;85.96;95530.06;5073765;28;20427;-73
2021/11/04 10:50:41;;;;;;;;;;;;;;;5.45;86.08;95533.88;5074140;28;20297;-73
2021/11/04 10:53:07;;;;;;;;;;;;;;;5.46;86.01;95538.88;5073858;28;19974;-73
2021/11/04 10:55:33;;;;;;;;;;;;;;;5.49;86.81;95538.44;5073853;28;19962;-73
2021/11/04 10:58:06;;;;;;;;;;;;;;;5.51;87.54;95543.44;5073593;28;19971;-73
2021/11/04 11:00:36;;;;;;;;;;;;;;;5.54;87.06;95544.81;5073862;28;19959;-73
2021/11/04 11:03:06;;;;;;;;;;;;;;;5.56;88.00;95556.59;5073745;28;19953;-73
2021/11/04 11:05:33;;;;;;;;;;;;;;;5.58;87.93;95557.19;5073481;28;19980;-73
2021/11/04 11:08:00;;;;;;;;;;;;;;;5.59;86.93;95556.22;5061346;28;20326;-73
2021/11/04 11:10:25;;;;;;;;;;;;;;;5.62;87.57;95565.41;5073762;28;19949;-73
2021/11/04 11:12:51;;;;;;;;;;;;;;;5.61;86.88;95569.81;5073856;28;20345;-73
2021/11/04 11:15:17;;;;;;;;;;;;;;;5.61;87.22;95566.41;5073449;28;19976;-73
2021/11/04 11:17:44;;;;;;;;;;;;;;;5.62;86.87;95573.97;5073512;28;20410;-73
2021/11/04 11:20:10;;;;;;;;;;;;;;;5.62;85.96;95571.38;5073402;28;20402;-73
2021/11/04 11:22:40;;;;;;;;;;;;;;;5.65;87.25;95588.41;5073748;28;19965;-73
2021/11/04 11:25:06;;;;;;;;;;;;;;;5.64;85.88;95587.59;5074526;28;19959;-73
2021/11/04 11:27:33;;;;;;;;;;;;;;;5.66;86.58;95588.16;5076411;28;19973;-73
2021/11/04 11:29:59;;;;;;;;;;;;;;;5.66;86.32;95587.38;5077422;28;19987;-73
2021/11/04 11:32:26;;;;;;;;;;;;;;;5.70;86.40;95604.16;5077721;28;19959;-73
2021/11/04 11:35:10;;;;;;;;;;;;;;;5.69;85.65;95605.16;5077438;28;19961;-73
2021/11/04 11:37:37;;;;;;;;;;;;;;;5.69;85.79;95607.75;5077239;28;19955;-73
2021/11/04 11:40:10;;;;;;;;;;;;;;;5.68;85.27;95611.38;5077828;28;19970;-73
2021/11/04 11:42:52;;;;;;;;;;;;;;;5.66;85.81;95616.78;5077442;28;19966;-73
2021/11/04 11:45:18;;;;;;;;;;;;;;;5.63;85.34;95619.81;5077491;28;19952;-74
2021/11/04 11:47:46;;;;;;;;;;;;;;;5.62;85.40;95618.19;5077013;28;20430;-73
2021/11/04 11:50:21;;;;;;;;;;;;;;;5.61;85.89;95631.44;5077275;28;20319;-73
2021/11/04 11:52:52;;;;;;;;;;;;;;;5.62;86.33;95622.59;5076717;28;19969;-74
2021/11/04 11:55:21;;;;;;;;;;;;;;;5.64;86.50;95625.81;5077061;28;19967;-73
2021/11/04 11:58:06;;;;;;;;;;;;;;;5.69;86.86;95631.19;5076906;28;19960;-74
2021/11/04 12:00:47;;;;;;;;;;;;;;;5.75;86.44;95630.34;5076759;28;19952;-73
2021/11/04 12:03:37;;;;;;;;;;;;;;;5.80;86.76;95634.94;5076739;28;19955;-73
2021/11/04 12:06:04;;;;;;;;;;;;;;;5.86;86.02;95636.72;5076743;28;19960;-73
2021/11/04 12:08:30;;;;;;;;;;;;;;;5.86;85.20;95634.13;5076715;28;19949;-74
2021/11/04 12:10:56;;;;;;;;;;;;;;;5.89;86.66;95650.09;5076623;28;20425;-73
2021/11/04 12:13:38;;;;;;;;;;;;;;;5.93;85.77;95641.91;5076607;28;19950;-73
2021/11/04 12:16:05;;;;;;;;;;;;;;;5.97;86.26;95640.50;5075632;28;19952;-73
2021/11/04 12:18:31;;;;;;;;;;;;;;;5.98;85.18;95647.28;5076294;28;19985;-73
2021/11/04 12:20:58;;;;;;;;;;;;;;;5.99;85.16;95654.09;5076407;28;20411;-73
2021/11/04 12:23:31;;;;;;;;;;;;;;;6.00;84.39;95653.88;5076506;28;19977;-73
2021/11/04 12:25:57;;;;;;;;;;;;;;;5.99;84.03;95656.72;5076559;28;19967;-73
2021/11/04 12:28:23;;;;;;;;;;;;;;;5.97;83.83;95659.50;5076335;28;20061;-73
2021/11/04 12:30:49;;;;;;;;;;;;;;;5.96;84.44;95670.13;5076665;28;19960;-73
2021/11/04 12:33:16;;;;;;;;;;;;;;;5.94;84.86;95667.69;5076254;28;19961;-76
2021/11/04 12:35:47;;;;;;;;;;;;;;;5.90;82.82;95669.94;5076286;28;19965;-76
2021/11/04 12:38:29;;;;;;;;;;;;;;;5.90;83.94;95676.94;5075682;28;19968;-76
2021/11/04 12:41:22;;;;;;;;;;;;;;;5.94;84.35;95675.50;5076590;28;19965;-78
2021/11/04 12:43:48;;;;;;;;;;;;;;;6.00;84.72;95676.50;5066441;28;19967;-76
2021/11/04 12:46:14;;;;;;;;;;;;;;;6.05;84.40;95685.28;5076314;28;19966;-76
2021/11/04 12:48:44;;;;;;;;;;;;;;;6.03;83.56;95683.91;5076423;28;20390;-76
2021/11/04 12:51:11;;;;;;;;;;;;;;;6.03;83.67;95691.72;5075918;28;19980;-76
2021/11/04 12:53:48;;;;;;;;;;;;;;;6.03;83.70;95687.31;5076049;28;19986;-74
2021/11/04 12:56:14;;;;;;;;;;;;;;;6.13;84.35;95699.06;5074670;28;19954;-73
2021/11/04 12:58:40;;;;;;;;;;;;;;;6.20;83.57;95697.25;5075811;28;20007;-73
2021/11/04 13:01:06;;;;;;;;;;;;;;;6.28;84.83;95703.00;5075698;28;19966;-74